KGON/GON METAR and TAF weather

Enter ICAO airport designator
Station Type Date Time Source
KGON METAR 2020/07/08 20:56 UTC NOAA

KGON 082056Z 20008KT 10SM CLR 23/21 A2995 RMK AO2 SLP140 T02330206 58018


Station Type Date Time Source
KGON Decoded METAR 2020/07/08 20:56 UTC NOAA

GROTON/NEW LONDON AIRPORT , CT, United States (KGON) 41-20N 72-03W 3M
Jul 08, 2020 - 04:56 PM EDT / 2020.07.08 2056 UTC
Wind: from the SSW (200 degrees) at 9 MPH (8 KT):0
Visibility: 10 mile(s):0
Sky conditions: clear
Temperature: 73.9 F (23.3 C)
Dew Point: 69.1 F (20.6 C)
Relative Humidity: 84%
Pressure (altimeter): 29.95 in. Hg (1014 hPa)
Pressure tendency: 0.05 inches (1.8 hPa) lower than three hours ago
ob: KGON 082056Z 20008KT 10SM CLR 23/21 A2995 RMK AO2 SLP140 T02330206 58018
cycle: 21

Station Type Date Time Source
KGON TAF 2020/07/08 20:52 UTC NOAA

TAF
AMD KGON 081950Z 0820/0918 19010KT P6SM SCT025 BKN250
TEMPO 0820/0823 5SM -SHRA
FM090200 20004KT 5SM BR BKN015
FM090600 VRB03KT 3SM BR BKN008 BKN015
FM091400 20005KT P6SM BKN020
FM091600 18007KT P6SM FEW025 FEW050 FEW250

Example: see airport list